sensor_id;sensor_type;location;lat;lon;timestamp;pressure;altitude;pressure_sealevel;temperature;humidity
12868;BME280;33517;49.866;8.320;2023-09-30T00:00:03;101298.88;;;18.03;82.56
12868;BME280;33517;49.866;8.320;2023-09-30T00:02:56;101295.72;;;17.93;83.98
12868;BME280;33517;49.866;8.320;2023-09-30T00:05:47;101298.56;;;17.92;83.30
12868;BME280;33517;49.866;8.320;2023-09-30T00:08:39;101316.03;;;17.94;83.69
12868;BME280;33517;49.866;8.320;2023-09-30T00:11:34;101319.06;;;17.91;83.94
12868;BME280;33517;49.866;8.320;2023-09-30T00:14:25;101318.13;;;17.78;84.70
12868;BME280;33517;49.866;8.320;2023-09-30T00:17:17;101319.88;;;17.71;85.32
12868;BME280;33517;49.866;8.320;2023-09-30T00:20:10;101329.19;;;17.60;86.13
12868;BME280;33517;49.866;8.320;2023-09-30T00:23:02;101325.78;;;17.66;85.74
12868;BME280;33517;49.866;8.320;2023-09-30T00:25:56;101333.38;;;17.69;85.37
12868;BME280;33517;49.866;8.320;2023-09-30T00:28:50;101330.78;;;17.76;84.89
12868;BME280;33517;49.866;8.320;2023-09-30T00:31:42;101332.97;;;17.72;85.22
12868;BME280;33517;49.866;8.320;2023-09-30T00:34:35;101331.28;;;17.65;85.69
12868;BME280;33517;49.866;8.320;2023-09-30T00:37:27;101344.41;;;17.66;85.96
12868;BME280;33517;49.866;8.320;2023-09-30T00:40:19;101344.13;;;17.61;86.57
12868;BME280;33517;49.866;8.320;2023-09-30T00:43:18;101338.16;;;17.59;86.16
12868;BME280;33517;49.866;8.320;2023-09-30T00:46:19;101346.00;;;17.61;86.13
12868;BME280;33517;49.866;8.320;2023-09-30T00:49:13;101349.47;;;17.61;86.24
12868;BME280;33517;49.866;8.320;2023-09-30T00:52:06;101347.25;;;17.65;85.92
12868;BME280;33517;49.866;8.320;2023-09-30T00:54:58;101350.28;;;17.62;85.60
12868;BME280;33517;49.866;8.320;2023-09-30T00:57:50;101351.13;;;17.62;84.82
12868;BME280;33517;49.866;8.320;2023-09-30T01:00:42;101358.09;;;17.63;84.64
12868;BME280;33517;49.866;8.320;2023-09-30T01:03:36;101352.13;;;17.61;84.52
12868;BME280;33517;49.866;8.320;2023-09-30T01:06:28;101353.59;;;17.64;84.81
12868;BME280;33517;49.866;8.320;2023-09-30T01:09:20;101352.41;;;17.66;84.63
12868;BME280;33517;49.866;8.320;2023-09-30T01:12:12;101353.78;;;17.62;84.75
12868;BME280;33517;49.866;8.320;2023-09-30T01:15:05;101355.16;;;17.58;84.98
12868;BME280;33517;49.866;8.320;2023-09-30T01:17:57;101351.09;;;17.47;86.15
12868;BME280;33517;49.866;8.320;2023-09-30T01:20:52;101361.69;;;17.41;86.65
12868;BME280;33517;49.866;8.320;2023-09-30T01:23:46;101360.41;;;17.52;85.69
12868;BME280;33517;49.866;8.320;2023-09-30T01:26:38;101360.50;;;17.58;85.33
12868;BME280;33517;49.866;8.320;2023-09-30T01:29:30;101360.09;;;17.61;84.82
12868;BME280;33517;49.866;8.320;2023-09-30T01:32:23;101367.59;;;17.51;85.93
12868;BME280;33517;49.866;8.320;2023-09-30T01:35:15;101361.63;;;17.49;85.47
12868;BME280;33517;49.866;8.320;2023-09-30T01:38:07;101365.00;;;17.43;85.60
12868;BME280;33517;49.866;8.320;2023-09-30T01:41:00;101362.81;;;17.32;86.18
12868;BME280;33517;49.866;8.320;2023-09-30T01:43:52;101366.66;;;17.29;86.14
12868;BME280;33517;49.866;8.320;2023-09-30T01:46:44;101367.31;;;17.31;85.50
12868;BME280;33517;49.866;8.320;2023-09-30T01:49:36;101368.88;;;17.26;86.64
12868;BME280;33517;49.866;8.320;2023-09-30T01:52:27;101368.50;;;17.29;85.77
12868;BME280;33517;49.866;8.320;2023-09-30T01:55:20;101358.03;;;17.27;86.25
12868;BME280;33517;49.866;8.320;2023-09-30T01:58:14;101356.75;;;17.23;85.81
12868;BME280;33517;49.866;8.320;2023-09-30T02:01:06;101353.56;;;17.28;85.38
12868;BME280;33517;49.866;8.320;2023-09-30T02:03:57;101354.53;;;17.27;85.56
12868;BME280;33517;49.866;8.320;2023-09-30T02:06:49;101355.56;;;17.26;84.99
12868;BME280;33517;49.866;8.320;2023-09-30T02:09:41;101351.63;;;17.22;84.97
12868;BME280;33517;49.866;8.320;2023-09-30T02:12:34;101361.34;;;17.15;85.09
12868;BME280;33517;49.866;8.320;2023-09-30T02:15:29;101366.59;;;17.08;85.09
12868;BME280;33517;49.866;8.320;2023-09-30T02:18:20;101378.88;;;16.95;86.30
12868;BME280;33517;49.866;8.320;2023-09-30T02:21:14;101376.59;;;16.92;85.36
12868;BME280;33517;49.866;8.320;2023-09-30T02:24:07;101379.31;;;16.84;85.42
12868;BME280;33517;49.866;8.320;2023-09-30T02:26:59;101375.06;;;16.75;85.64
12868;BME280;33517;49.866;8.320;2023-09-30T02:29:51;101369.88;;;16.67;85.37
12868;BME280;33517;49.866;8.320;2023-09-30T02:32:44;101375.06;;;16.60;85.41
12868;BME280;33517;49.866;8.320;2023-09-30T02:35:37;101379.78;;;16.50;85.19
12868;BME280;33517;49.866;8.320;2023-09-30T02:38:30;101380.38;;;16.37;85.01
12868;BME280;33517;49.866;8.320;2023-09-30T02:41:22;101390.38;;;16.35;84.73
12868;BME280;33517;49.866;8.320;2023-09-30T02:44:14;101391.06;;;16.29;84.68
12868;BME280;33517;49.866;8.320;2023-09-30T02:47:06;101403.50;;;16.29;84.76
12868;BME280;33517;49.866;8.320;2023-09-30T02:50:01;101418.47;;;16.30;84.28
12868;BME280;33517;49.866;8.320;2023-09-30T02:52:53;101427.09;;;16.32;84.65
12868;BME280;33517;49.866;8.320;2023-09-30T02:55:45;101430.44;;;16.26;84.69
12868;BME280;33517;49.866;8.320;2023-09-30T02:58:37;101426.91;;;16.33;84.10
12868;BME280;33517;49.866;8.320;2023-09-30T03:01:29;101422.66;;;16.47;83.83
12868;BME280;33517;49.866;8.320;2023-09-30T03:04:21;101421.78;;;16.54;83.15
12868;BME280;33517;49.866;8.320;2023-09-30T03:07:18;101422.97;;;16.52;82.87
12868;BME280;33517;49.866;8.320;2023-09-30T03:10:11;101415.66;;;16.46;82.92
12868;BME280;33517;49.866;8.320;2023-09-30T03:13:04;101408.78;;;16.37;82.94
12868;BME280;33517;49.866;8.320;2023-09-30T03:15:56;101402.78;;;16.20;83.05
12868;BME280;33517;49.866;8.320;2023-09-30T03:18:48;101395.28;;;16.01;83.18
12868;BME280;33517;49.866;8.320;2023-09-30T03:21:40;101404.34;;;15.84;83.69
12868;BME280;33517;49.866;8.320;2023-09-30T03:24:33;101402.88;;;15.74;84.33
12868;BME280;33517;49.866;8.320;2023-09-30T03:27:25;101407.25;;;15.66;84.30
12868;BME280;33517;49.866;8.320;2023-09-30T03:30:17;101415.25;;;15.58;84.15
12868;BME280;33517;49.866;8.320;2023-09-30T03:33:10;101431.38;;;15.49;84.55
12868;BME280;33517;49.866;8.320;2023-09-30T03:36:02;101440.34;;;15.48;84.69
12868;BME280;33517;49.866;8.320;2023-09-30T03:38:54;101442.63;;;15.51;85.03
12868;BME280;33517;49.866;8.320;2023-09-30T03:41:51;101439.97;;;15.59;84.71
12868;BME280;33517;49.866;8.320;2023-09-30T03:44:44;101419.41;;;15.53;85.01
12868;BME280;33517;49.866;8.320;2023-09-30T03:47:39;101422.75;;;15.47;84.46
12868;BME280;33517;49.866;8.320;2023-09-30T03:50:31;101447.81;;;15.36;84.41
12868;BME280;33517;49.866;8.320;2023-09-30T03:53:23;101440.22;;;15.17;84.83
12868;BME280;33517;49.866;8.320;2023-09-30T03:56:17;101441.75;;;14.96;87.09
12868;BME280;33517;49.866;8.320;2023-09-30T03:59:10;101446.56;;;14.84;86.73
12868;BME280;33517;49.866;8.320;2023-09-30T04:02:02;101435.16;;;14.75;87.31
12868;BME280;33517;49.866;8.320;2023-09-30T04:04:54;101441.81;;;14.71;87.01
12868;BME280;33517;49.866;8.320;2023-09-30T04:07:48;101433.00;;;14.63;86.37
12868;BME280;33517;49.866;8.320;2023-09-30T04:10:39;101439.31;;;14.54;86.49
12868;BME280;33517;49.866;8.320;2023-09-30T04:13:31;101448.41;;;14.43;86.31
12868;BME280;33517;49.866;8.320;2023-09-30T04:16:25;101443.13;;;14.35;87.14
12868;BME280;33517;49.866;8.320;2023-09-30T04:19:19;101435.66;;;14.31;87.22
12868;BME280;33517;49.866;8.320;2023-09-30T04:22:12;101443.09;;;14.27;86.33
12868;BME280;33517;49.866;8.320;2023-09-30T04:25:04;101437.59;;;14.21;85.95
12868;BME280;33517;49.866;8.320;2023-09-30T04:27:59;101442.72;;;14.14;86.47
12868;BME280;33517;49.866;8.320;2023-09-30T04:30:53;101444.69;;;14.04;85.56
12868;BME280;33517;49.866;8.320;2023-09-30T04:33:46;101457.22;;;13.94;86.15
12868;BME280;33517;49.866;8.320;2023-09-30T04:36:38;101440.19;;;13.88;86.71
12868;BME280;33517;49.866;8.320;2023-09-30T04:39:30;101439.97;;;13.82;87.28
12868;BME280;33517;49.866;8.320;2023-09-30T04:42:25;101448.88;;;13.73;87.38
12868;BME280;33517;49.866;8.320;2023-09-30T04:45:17;101445.22;;;13.66;87.86
12868;BME280;33517;49.866;8.320;2023-09-30T04:48:10;101444.53;;;13.56;87.51
12868;BME280;33517;49.866;8.320;2023-09-30T04:51:07;101450.44;;;13.50;87.42
12868;BME280;33517;49.866;8.320;2023-09-30T04:53:59;101442.16;;;13.45;87.48
12868;BME280;33517;49.866;8.320;2023-09-30T04:56:52;101448.09;;;13.39;87.53
12868;BME280;33517;49.866;8.320;2023-09-30T04:59:44;101445.09;;;13.34;87.89
12868;BME280;33517;49.866;8.320;2023-09-30T05:02:37;101444.72;;;13.29;87.76
12868;BME280;33517;49.866;8.320;2023-09-30T05:05:29;101449.81;;;13.22;88.22
12868;BME280;33517;49.866;8.320;2023-09-30T05:08:23;101449.75;;;13.14;87.85
12868;BME280;33517;49.866;8.320;2023-09-30T05:11:16;101453.03;;;13.08;88.65
12868;BME280;33517;49.866;8.320;2023-09-30T05:14:08;101463.09;;;13.05;87.70
12868;BME280;33517;49.866;8.320;2023-09-30T05:17:00;101462.09;;;13.06;88.61
12868;BME280;33517;49.866;8.320;2023-09-30T05:19:52;101457.63;;;13.06;88.88
12868;BME280;33517;49.866;8.320;2023-09-30T05:22:44;101473.31;;;13.08;89.43
12868;BME280;33517;49.866;8.320;2023-09-30T05:25:38;101467.25;;;13.15;89.99
12868;BME280;33517;49.866;8.320;2023-09-30T05:28:30;101457.88;;;13.21;90.08
12868;BME280;33517;49.866;8.320;2023-09-30T05:31:22;101462.38;;;13.28;89.92
12868;BME280;33517;49.866;8.320;2023-09-30T05:34:14;101457.81;;;13.38;90.00
12868;BME280;33517;49.866;8.320;2023-09-30T05:37:06;101461.19;;;13.48;90.13
12868;BME280;33517;49.866;8.320;2023-09-30T05:39:58;101461.47;;;13.37;91.57
12868;BME280;33517;49.866;8.320;2023-09-30T05:42:53;101455.00;;;13.40;90.53
12868;BME280;33517;49.866;8.320;2023-09-30T05:45:45;101460.34;;;13.48;90.79
12868;BME280;33517;49.866;8.320;2023-09-30T05:48:40;101463.59;;;13.67;91.72
12868;BME280;33517;49.866;8.320;2023-09-30T05:51:32;101468.28;;;13.89;90.66
12868;BME280;33517;49.866;8.320;2023-09-30T05:54:24;101475.63;;;14.12;89.59
12868;BME280;33517;49.866;8.320;2023-09-30T05:57:16;101479.84;;;14.30;89.21
12868;BME280;33517;49.866;8.320;2023-09-30T06:00:12;101484.66;;;14.51;89.02
12868;BME280;33517;49.866;8.320;2023-09-30T06:03:10;101483.34;;;14.71;88.10
12868;BME280;33517;49.866;8.320;2023-09-30T06:06:02;101488.81;;;14.86;88.29
12868;BME280;33517;49.866;8.320;2023-09-30T06:08:54;101490.97;;;14.90;87.53
12868;BME280;33517;49.866;8.320;2023-09-30T06:11:49;101487.47;;;14.82;87.76
12868;BME280;33517;49.866;8.320;2023-09-30T06:14:41;101495.44;;;14.65;88.77
12868;BME280;33517;49.866;8.320;2023-09-30T06:17:36;101498.44;;;14.54;88.34
12868;BME280;33517;49.866;8.320;2023-09-30T06:20:28;101495.94;;;14.45;87.84
12868;BME280;33517;49.866;8.320;2023-09-30T06:23:21;101504.19;;;14.42;88.00
12868;BME280;33517;49.866;8.320;2023-09-30T06:26:13;101510.16;;;14.52;87.47
12868;BME280;33517;49.866;8.320;2023-09-30T06:29:05;101515.66;;;14.83;86.93
12868;BME280;33517;49.866;8.320;2023-09-30T06:31:58;101511.72;;;16.04;84.22
12868;BME280;33517;49.866;8.320;2023-09-30T06:34:51;101501.06;;;17.25;79.01
12868;BME280;33517;49.866;8.320;2023-09-30T06:37:43;101509.81;;;18.64;75.24
12868;BME280;33517;49.866;8.320;2023-09-30T06:40:36;101510.13;;;19.92;71.63
12868;BME280;33517;49.866;8.320;2023-09-30T06:43:28;101508.84;;;19.82;71.54
12868;BME280;33517;49.866;8.320;2023-09-30T06:46:20;101508.69;;;19.28;72.04
12868;BME280;33517;49.866;8.320;2023-09-30T06:49:12;101508.38;;;19.38;69.51
12868;BME280;33517;49.866;8.320;2023-09-30T06:52:07;101514.44;;;19.53;70.43
12868;BME280;33517;49.866;8.320;2023-09-30T06:54:59;101522.97;;;21.03;67.57
12868;BME280;33517;49.866;8.320;2023-09-30T06:57:51;101520.53;;;22.05;63.67
12868;BME280;33517;49.866;8.320;2023-09-30T07:00:43;101523.16;;;22.11;63.01
12868;BME280;33517;49.866;8.320;2023-09-30T07:03:35;101532.16;;;21.59;64.39
12868;BME280;33517;49.866;8.320;2023-09-30T07:06:27;101553.72;;;22.48;62.54
12868;BME280;33517;49.866;8.320;2023-09-30T07:09:20;101573.31;;;23.17;59.92
12868;BME280;33517;49.866;8.320;2023-09-30T07:12:12;101567.41;;;23.76;57.52
12868;BME280;33517;49.866;8.320;2023-09-30T07:15:05;101555.53;;;24.20;56.49
12868;BME280;33517;49.866;8.320;2023-09-30T07:17:57;101552.16;;;24.54;55.13
12868;BME280;33517;49.866;8.320;2023-09-30T07:20:49;101543.16;;;24.60;53.53
12868;BME280;33517;49.866;8.320;2023-09-30T07:23:42;101539.25;;;23.78;52.44
12868;BME280;33517;49.866;8.320;2023-09-30T07:26:36;101545.47;;;24.75;53.94
12868;BME280;33517;49.866;8.320;2023-09-30T07:29:29;101548.22;;;25.90;52.02
12868;BME280;33517;49.866;8.320;2023-09-30T07:32:23;101552.81;;;26.58;49.66
12868;BME280;33517;49.866;8.320;2023-09-30T07:35:16;101555.69;;;27.29;49.50
12868;BME280;33517;49.866;8.320;2023-09-30T07:38:10;101569.13;;;28.17;46.91
12868;BME280;33517;49.866;8.320;2023-09-30T07:41:02;101564.94;;;28.31;43.31
12868;BME280;33517;49.866;8.320;2023-09-30T07:43:57;101563.34;;;28.35;46.06
12868;BME280;33517;49.866;8.320;2023-09-30T07:46:54;101552.28;;;28.63;45.65
12868;BME280;33517;49.866;8.320;2023-09-30T07:49:50;101552.41;;;29.42;44.91
12868;BME280;33517;49.866;8.320;2023-09-30T07:52:42;101542.44;;;29.47;44.37
12868;BME280;33517;49.866;8.320;2023-09-30T07:55:35;101547.59;;;30.06;43.29
12868;BME280;33517;49.866;8.320;2023-09-30T07:58:28;101550.16;;;30.32;42.20
12868;BME280;33517;49.866;8.320;2023-09-30T08:01:21;101555.97;;;31.11;41.45
12868;BME280;33517;49.866;8.320;2023-09-30T08:04:13;101566.97;;;31.95;39.90
12868;BME280;33517;49.866;8.320;2023-09-30T08:07:05;101548.81;;;30.40;38.37
12868;BME280;33517;49.866;8.320;2023-09-30T08:09:57;101554.81;;;30.57;40.18
12868;BME280;33517;49.866;8.320;2023-09-30T08:12:49;101556.22;;;31.20;38.21
12868;BME280;33517;49.866;8.320;2023-09-30T08:15:41;101549.16;;;31.39;38.75
12868;BME280;33517;49.866;8.320;2023-09-30T08:18:34;101549.44;;;31.22;38.91
12868;BME280;33517;49.866;8.320;2023-09-30T08:21:26;101556.38;;;31.94;39.38
12868;BME280;33517;49.866;8.320;2023-09-30T08:24:19;101562.78;;;32.18;36.17
12868;BME280;33517;49.866;8.320;2023-09-30T08:27:11;101555.16;;;32.69;35.30
12868;BME280;33517;49.866;8.320;2023-09-30T08:30:04;101562.69;;;32.33;35.12
12868;BME280;33517;49.866;8.320;2023-09-30T08:32:56;101560.91;;;32.67;33.38
12868;BME280;33517;49.866;8.320;2023-09-30T08:35:49;101569.84;;;31.25;35.38
12868;BME280;33517;49.866;8.320;2023-09-30T08:38:41;101573.06;;;32.31;34.03
12868;BME280;33517;49.866;8.320;2023-09-30T08:41:34;101568.78;;;30.91;35.74
12868;BME280;33517;49.866;8.320;2023-09-30T08:44:26;101577.44;;;33.14;33.85
12868;BME280;33517;49.866;8.320;2023-09-30T08:47:19;101573.41;;;32.19;34.40
12868;BME280;33517;49.866;8.320;2023-09-30T08:50:13;101566.41;;;29.24;36.87
12868;BME280;33517;49.866;8.320;2023-09-30T08:53:09;101584.28;;;28.18;38.98
12868;BME280;33517;49.866;8.320;2023-09-30T08:56:02;101578.78;;;27.03;40.38
12868;BME280;33517;49.866;8.320;2023-09-30T08:58:59;101576.50;;;28.00;39.88
12868;BME280;33517;49.866;8.320;2023-09-30T09:01:51;101575.09;;;28.19;39.17
12868;BME280;33517;49.866;8.320;2023-09-30T09:04:44;101559.75;;;29.46;37.70
12868;BME280;33517;49.866;8.320;2023-09-30T09:07:37;101570.06;;;30.58;34.86
12868;BME280;33517;49.866;8.320;2023-09-30T09:10:30;101569.28;;;31.28;34.50
12868;BME280;33517;49.866;8.320;2023-09-30T09:13:23;101592.59;;;34.49;31.50
12868;BME280;33517;49.866;8.320;2023-09-30T09:16:16;101592.75;;;36.35;29.32
12868;BME280;33517;49.866;8.320;2023-09-30T09:19:15;101589.88;;;35.91;28.35
12868;BME280;33517;49.866;8.320;2023-09-30T09:22:07;101595.47;;;35.99;29.08
12868;BME280;33517;49.866;8.320;2023-09-30T09:24:59;101591.19;;;36.21;29.87
12868;BME280;33517;49.866;8.320;2023-09-30T09:27:53;101591.16;;;36.34;28.64
12868;BME280;33517;49.866;8.320;2023-09-30T09:30:45;101587.41;;;36.66;27.95
12868;BME280;33517;49.866;8.320;2023-09-30T09:33:37;101587.69;;;36.78;27.48
12868;BME280;33517;49.866;8.320;2023-09-30T09:36:38;101589.34;;;36.65;26.43
12868;BME280;33517;49.866;8.320;2023-09-30T09:39:31;101577.78;;;35.78;27.90
12868;BME280;33517;49.866;8.320;2023-09-30T09:42:27;101584.81;;;36.12;27.98
12868;BME280;33517;49.866;8.320;2023-09-30T09:45:21;101587.50;;;36.25;27.65
12868;BME280;33517;49.866;8.320;2023-09-30T09:48:14;101588.06;;;36.85;26.40
12868;BME280;33517;49.866;8.320;2023-09-30T09:51:08;101584.19;;;37.08;25.90
12868;BME280;33517;49.866;8.320;2023-09-30T09:54:04;101584.63;;;36.79;25.63
12868;BME280;33517;49.866;8.320;2023-09-30T09:56:59;101575.66;;;36.16;26.33
12868;BME280;33517;49.866;8.320;2023-09-30T09:59:53;101576.69;;;36.06;26.65
12868;BME280;33517;49.866;8.320;2023-09-30T10:02:48;101569.69;;;37.38;25.75
12868;BME280;33517;49.866;8.320;2023-09-30T10:05:40;101562.16;;;37.92;25.69
12868;BME280;33517;49.866;8.320;2023-09-30T10:08:36;101544.16;;;37.77;24.81
12868;BME280;33517;49.866;8.320;2023-09-30T10:11:30;101542.63;;;36.79;25.40
12868;BME280;33517;49.866;8.320;2023-09-30T10:14:30;101548.31;;;37.74;24.98
12868;BME280;33517;49.866;8.320;2023-09-30T10:17:57;101537.88;;;37.37;24.57
12868;BME280;33517;49.866;8.320;2023-09-30T10:20:49;101536.44;;;36.87;25.83
12868;BME280;33517;49.866;8.320;2023-09-30T10:23:42;101540.44;;;36.09;25.93
12868;BME280;33517;49.866;8.320;2023-09-30T10:26:33;101537.66;;;36.59;26.17
12868;BME280;33517;49.866;8.320;2023-09-30T10:29:39;101533.56;;;34.80;25.24
12868;BME280;33517;49.866;8.320;2023-09-30T10:33:10;101529.22;;;35.11;26.99
12868;BME280;33517;49.866;8.320;2023-09-30T10:36:03;101530.69;;;36.53;25.82
12868;BME280;33517;49.866;8.320;2023-09-30T10:38:56;101528.59;;;37.72;24.91
12868;BME280;33517;49.866;8.320;2023-09-30T10:41:49;101527.22;;;36.69;24.59
12868;BME280;33517;49.866;8.320;2023-09-30T10:44:41;101526.13;;;35.45;25.33
12868;BME280;33517;49.866;8.320;2023-09-30T10:47:36;101519.66;;;36.31;25.45
12868;BME280;33517;49.866;8.320;2023-09-30T10:50:52;101514.31;;;37.53;24.42
12868;BME280;33517;49.866;8.320;2023-09-30T10:53:50;101527.47;;;38.64;24.16
12868;BME280;33517;49.866;8.320;2023-09-30T10:56:43;101529.69;;;38.19;24.60
12868;BME280;33517;49.866;8.320;2023-09-30T10:59:35;101520.59;;;38.02;24.43
12868;BME280;33517;49.866;8.320;2023-09-30T11:02:27;101517.38;;;37.91;23.30
12868;BME280;33517;49.866;8.320;2023-09-30T11:05:19;101523.50;;;35.53;25.50
12868;BME280;33517;49.866;8.320;2023-09-30T11:08:15;101512.16;;;33.70;27.17
12868;BME280;33517;49.866;8.320;2023-09-30T11:11:08;101516.22;;;34.71;26.52
12868;BME280;33517;49.866;8.320;2023-09-30T11:14:00;101514.78;;;36.63;25.30
12868;BME280;33517;49.866;8.320;2023-09-30T11:16:53;101523.25;;;37.67;25.10
12868;BME280;33517;49.866;8.320;2023-09-30T11:19:46;101522.91;;;36.33;25.12
12868;BME280;33517;49.866;8.320;2023-09-30T11:22:39;101518.34;;;36.42;24.49
12868;BME280;33517;49.866;8.320;2023-09-30T11:25:36;101517.06;;;35.17;26.52
12868;BME280;33517;49.866;8.320;2023-09-30T11:28:38;101527.44;;;35.88;25.30
12868;BME280;33517;49.866;8.320;2023-09-30T11:31:30;101533.91;;;35.38;26.37
12868;BME280;33517;49.866;8.320;2023-09-30T11:34:31;101524.06;;;33.03;28.00
12868;BME280;33517;49.866;8.320;2023-09-30T11:37:30;101522.53;;;30.91;29.12
12868;BME280;33517;49.866;8.320;2023-09-30T11:40:23;101514.34;;;28.90;31.74
12868;BME280;33517;49.866;8.320;2023-09-30T11:43:16;101511.81;;;31.54;30.51
12868;BME280;33517;49.866;8.320;2023-09-30T11:46:10;101509.78;;;33.64;28.44
12868;BME280;33517;49.866;8.320;2023-09-30T11:49:03;101502.41;;;34.25;26.78
12868;BME280;33517;49.866;8.320;2023-09-30T11:51:56;101505.16;;;34.94;26.26
12868;BME280;33517;49.866;8.320;2023-09-30T11:54:49;101501.44;;;34.72;26.73
12868;BME280;33517;49.866;8.320;2023-09-30T11:57:41;101493.66;;;34.47;26.38
12868;BME280;33517;49.866;8.320;2023-09-30T12:00:34;101507.16;;;34.89;25.67
12868;BME280;33517;49.866;8.320;2023-09-30T12:03:26;101507.34;;;34.79;26.57
12868;BME280;33517;49.866;8.320;2023-09-30T12:06:18;101513.50;;;35.03;25.86
12868;BME280;33517;49.866;8.320;2023-09-30T12:09:10;101504.84;;;34.26;26.34
12868;BME280;33517;49.866;8.320;2023-09-30T12:12:05;101495.16;;;32.69;27.26
12868;BME280;33517;49.866;8.320;2023-09-30T12:14:59;101495.81;;;31.38;28.61
12868;BME280;33517;49.866;8.320;2023-09-30T12:17:54;101495.97;;;31.77;28.43
12868;BME280;33517;49.866;8.320;2023-09-30T12:20:45;101492.72;;;31.69;28.60
12868;BME280;33517;49.866;8.320;2023-09-30T12:23:37;101484.81;;;33.23;27.73
12868;BME280;33517;49.866;8.320;2023-09-30T12:26:30;101478.56;;;33.46;27.15
12868;BME280;33517;49.866;8.320;2023-09-30T12:29:22;101477.81;;;34.76;26.36
12868;BME280;33517;49.866;8.320;2023-09-30T12:32:14;101474.78;;;35.77;26.31
12868;BME280;33517;49.866;8.320;2023-09-30T12:35:08;101476.41;;;35.78;25.11
12868;BME280;33517;49.866;8.320;2023-09-30T12:38:01;101466.47;;;36.18;25.50
12868;BME280;33517;49.866;8.320;2023-09-30T12:40:53;101464.66;;;35.23;25.41
12868;BME280;33517;49.866;8.320;2023-09-30T12:43:46;101458.88;;;35.39;25.26
12868;BME280;33517;49.866;8.320;2023-09-30T12:46:38;101454.72;;;35.28;24.63
12868;BME280;33517;49.866;8.320;2023-09-30T12:49:30;101458.16;;;35.06;25.52
12868;BME280;33517;49.866;8.320;2023-09-30T12:52:24;101460.81;;;35.24;25.04
12868;BME280;33517;49.866;8.320;2023-09-30T12:55:17;101467.72;;;35.49;24.83
12868;BME280;33517;49.866;8.320;2023-09-30T12:58:09;101467.31;;;34.83;25.14
12868;BME280;33517;49.866;8.320;2023-09-30T13:01:01;101477.72;;;34.30;25.73
12868;BME280;33517;49.866;8.320;2023-09-30T13:03:53;101470.69;;;33.68;26.63
12868;BME280;33517;49.866;8.320;2023-09-30T13:06:45;101464.69;;;34.08;26.15
12868;BME280;33517;49.866;8.320;2023-09-30T13:09:38;101459.75;;;33.68;26.26
12868;BME280;33517;49.866;8.320;2023-09-30T13:12:31;101447.19;;;32.29;27.03
12868;BME280;33517;49.866;8.320;2023-09-30T13:15:24;101452.06;;;31.09;27.75
12868;BME280;33517;49.866;8.320;2023-09-30T13:18:17;101446.38;;;30.96;28.21
12868;BME280;33517;49.866;8.320;2023-09-30T13:21:09;101437.69;;;30.99;29.01
12868;BME280;33517;49.866;8.320;2023-09-30T13:24:03;101431.69;;;31.02;28.50
12868;BME280;33517;49.866;8.320;2023-09-30T13:26:59;101434.19;;;30.58;28.69
12868;BME280;33517;49.866;8.320;2023-09-30T13:29:51;101428.63;;;29.82;29.88
12868;BME280;33517;49.866;8.320;2023-09-30T13:32:45;101423.63;;;29.59;29.77
12868;BME280;33517;49.866;8.320;2023-09-30T13:35:37;101429.91;;;29.13;31.26
12868;BME280;33517;49.866;8.320;2023-09-30T13:38:33;101421.81;;;28.76;31.32
12868;BME280;33517;49.866;8.320;2023-09-30T13:41:25;101418.19;;;28.61;31.51
12868;BME280;33517;49.866;8.320;2023-09-30T13:44:19;101415.38;;;28.19;32.08
12868;BME280;33517;49.866;8.320;2023-09-30T13:47:11;101420.94;;;28.07;32.70
12868;BME280;33517;49.866;8.320;2023-09-30T13:50:04;101422.47;;;28.57;32.03
12868;BME280;33517;49.866;8.320;2023-09-30T13:52:57;101415.56;;;29.13;31.47
12868;BME280;33517;49.866;8.320;2023-09-30T13:55:53;101418.56;;;29.16;31.81
12868;BME280;33517;49.866;8.320;2023-09-30T13:58:45;101414.81;;;29.27;31.25
12868;BME280;33517;49.866;8.320;2023-09-30T14:01:38;101410.78;;;29.30;31.51
12868;BME280;33517;49.866;8.320;2023-09-30T14:04:32;101409.88;;;29.71;31.54
12868;BME280;33517;49.866;8.320;2023-09-30T14:07:26;101400.47;;;29.32;31.26
12868;BME280;33517;49.866;8.320;2023-09-30T14:10:19;101399.19;;;28.97;31.79
12868;BME280;33517;49.866;8.320;2023-09-30T14:13:11;101399.41;;;28.91;32.29
12868;BME280;33517;49.866;8.320;2023-09-30T14:16:04;101396.41;;;28.51;32.51
12868;BME280;33517;49.866;8.320;2023-09-30T14:18:58;101390.88;;;28.36;32.53
12868;BME280;33517;49.866;8.320;2023-09-30T14:21:51;101382.69;;;27.77;33.10
12868;BME280;33517;49.866;8.320;2023-09-30T14:24:43;101380.81;;;27.13;33.29
12868;BME280;33517;49.866;8.320;2023-09-30T14:27:37;101378.38;;;27.11;33.85
12868;BME280;33517;49.866;8.320;2023-09-30T14:30:31;101381.78;;;26.69;33.92
12868;BME280;33517;49.866;8.320;2023-09-30T14:33:23;101382.94;;;25.95;34.77
12868;BME280;33517;49.866;8.320;2023-09-30T14:36:17;101373.59;;;25.58;35.32
12868;BME280;33517;49.866;8.320;2023-09-30T14:39:09;101378.34;;;25.27;35.99
12868;BME280;33517;49.866;8.320;2023-09-30T14:42:01;101390.34;;;24.74;36.79
12868;BME280;33517;49.866;8.320;2023-09-30T14:44:53;101374.47;;;24.31;37.17
12868;BME280;33517;49.866;8.320;2023-09-30T14:47:47;101378.72;;;23.97;37.60
12868;BME280;33517;49.866;8.320;2023-09-30T14:50:48;101369.25;;;23.65;37.88
12868;BME280;33517;49.866;8.320;2023-09-30T14:53:41;101362.38;;;23.51;37.85
12868;BME280;33517;49.866;8.320;2023-09-30T14:56:33;101366.28;;;23.37;38.17
12868;BME280;33517;49.866;8.320;2023-09-30T14:59:25;101362.53;;;23.20;38.87
12868;BME280;33517;49.866;8.320;2023-09-30T15:02:17;101366.06;;;23.02;38.89
12868;BME280;33517;49.866;8.320;2023-09-30T15:05:09;101357.59;;;22.80;39.21